Time;durP1;ratioP1;P1;durP2;ratioP2;P2;SDS_P1;SDS_P2;PMS_P1;PMS_P2;Temp;Humidity;BMP_temperature;BMP_pressure;BME280_temperature;BME280_humidity;BME280_pressure;Samples;Min_cycle;Max_cycle;Signal;HPM_P1;HPM_P2
2022/04/20 00:00:28;;;;;;;7.05;4.03;;;;;;;;;;5065513;28;20071;-61
2022/04/20 00:02:54;;;;;;;8.18;4.03;;;;;;;;;;5086429;28;20472;-61
2022/04/20 00:05:20;;;;;;;7.80;3.83;;;;;;;;;;5092117;28;20040;-61
2022/04/20 00:07:46;;;;;;;7.10;4.35;;;;;;;;;;5076738;28;20048;-61
2022/04/20 00:10:12;;;;;;;8.98;4.18;;;;;;;;;;5092011;28;20040;-63
2022/04/20 00:12:38;;;;;;;7.82;3.70;;;;;;;;;;5088111;28;20043;-61
2022/04/20 00:15:04;;;;;;;6.95;4.00;;;;;;;;;;5090725;28;20555;-61
2022/04/20 00:17:30;;;;;;;8.00;4.07;;;;;;;;;;5073955;28;20038;-61
2022/04/20 00:19:56;;;;;;;7.40;4.07;;;;;;;;;;5051194;28;20045;-61
2022/04/20 00:22:22;;;;;;;8.35;3.88;;;;;;;;;;5081167;28;20502;-62
2022/04/20 00:24:48;;;;;;;7.28;3.90;;;;;;;;;;5085833;28;20036;-62
2022/04/20 00:27:14;;;;;;;6.45;3.65;;;;;;;;;;5072036;28;20043;-61
2022/04/20 00:29:40;;;;;;;7.28;3.65;;;;;;;;;;5056192;28;20050;-63
2022/04/20 00:32:06;;;;;;;9.00;4.20;;;;;;;;;;5083849;28;20044;-61
2022/04/20 00:34:32;;;;;;;8.63;3.80;;;;;;;;;;5089624;28;20083;-62
2022/04/20 00:36:59;;;;;;;8.18;3.67;;;;;;;;;;5055816;28;20080;-61
2022/04/20 00:39:25;;;;;;;6.85;3.40;;;;;;;;;;5050735;28;20425;-61
2022/04/20 00:41:52;;;;;;;10.52;3.80;;;;;;;;;;5093176;28;20480;-62
2022/04/20 00:44:18;;;;;;;6.72;3.78;;;;;;;;;;5074209;28;20143;-62
2022/04/20 00:46:46;;;;;;;7.03;3.33;;;;;;;;;;5091736;28;20491;-61
2022/04/20 00:49:12;;;;;;;6.68;3.33;;;;;;;;;;5089696;28;20056;-61
2022/04/20 00:51:49;;;;;;;7.13;3.65;;;;;;;;;;5091281;28;20048;-61
2022/04/20 00:54:15;;;;;;;6.75;3.67;;;;;;;;;;5089799;28;20035;-61
2022/04/20 00:56:41;;;;;;;7.55;3.60;;;;;;;;;;5060129;28;20401;-61
2022/04/20 00:59:07;;;;;;;6.93;3.42;;;;;;;;;;5055100;28;20053;-62
2022/04/20 01:01:33;;;;;;;5.95;3.50;;;;;;;;;;5038887;28;20053;-61
2022/04/20 01:03:59;;;;;;;7.20;4.22;;;;;;;;;;5072107;28;20045;-61
2022/04/20 01:06:25;;;;;;;10.43;3.50;;;;;;;;;;5071777;28;20045;-61
2022/04/20 01:08:51;;;;;;;8.90;3.90;;;;;;;;;;5075937;28;20561;-61
2022/04/20 01:11:17;;;;;;;8.43;3.90;;;;;;;;;;5077501;28;20087;-61
2022/04/20 01:13:43;;;;;;;6.18;3.40;;;;;;;;;;5080244;28;20044;-61
2022/04/20 01:16:09;;;;;;;8.82;3.95;;;;;;;;;;5097186;28;20036;-61
2022/04/20 01:18:41;;;;;;;8.15;4.00;;;;;;;;;;5094561;28;20040;-62
2022/04/20 01:21:07;;;;;;;8.13;3.67;;;;;;;;;;5056550;28;20055;-61
2022/04/20 01:23:33;;;;;;;6.97;3.83;;;;;;;;;;5079805;28;20052;-61
2022/04/20 01:25:59;;;;;;;8.55;4.03;;;;;;;;;;5070938;28;20130;-61
2022/04/20 01:28:25;;;;;;;6.00;3.60;;;;;;;;;;5086651;28;20047;-61
2022/04/20 01:30:51;;;;;;;7.72;4.15;;;;;;;;;;5095995;28;20046;-61
2022/04/20 01:33:17;;;;;;;8.40;4.70;;;;;;;;;;5047219;28;20045;-61
2022/04/20 01:35:43;;;;;;;6.10;3.40;;;;;;;;;;5073631;28;20388;-61
2022/04/20 01:38:09;;;;;;;6.18;3.75;;;;;;;;;;5084281;28;20412;-61
2022/04/20 01:40:35;;;;;;;6.85;3.83;;;;;;;;;;5085921;28;20056;-61
2022/04/20 01:43:01;;;;;;;8.38;3.90;;;;;;;;;;5064407;28;20063;-63
2022/04/20 01:45:27;;;;;;;7.68;4.53;;;;;;;;;;5082751;28;20415;-61
2022/04/20 01:47:53;;;;;;;6.28;3.90;;;;;;;;;;5046902;28;20051;-61
2022/04/20 01:50:19;;;;;;;6.22;3.60;;;;;;;;;;5081854;28;20089;-62
2022/04/20 01:52:48;;;;;;;5.95;3.85;;;;;;;;;;5064095;28;20040;-62
2022/04/20 01:55:14;;;;;;;7.07;4.35;;;;;;;;;;5044833;28;20106;-61
2022/04/20 01:57:40;;;;;;;9.50;4.72;;;;;;;;;;5082754;28;20947;-61
2022/04/20 02:00:06;;;;;;;7.82;4.65;;;;;;;;;;5084675;28;20059;-61
2022/04/20 02:02:35;;;;;;;8.32;4.00;;;;;;;;;;5081673;28;20123;-62
2022/04/20 02:05:03;;;;;;;8.07;4.30;;;;;;;;;;5047847;28;20104;-62
2022/04/20 02:07:29;;;;;;;11.10;4.45;;;;;;;;;;5082117;28;20048;-61
2022/04/20 02:09:55;;;;;;;7.68;4.20;;;;;;;;;;5086671;28;20048;-61
2022/04/20 02:12:21;;;;;;;7.43;4.32;;;;;;;;;;5076278;28;20181;-62
2022/04/20 02:14:47;;;;;;;8.95;4.97;;;;;;;;;;5088874;28;20456;-62
2022/04/20 02:17:13;;;;;;;8.38;4.38;;;;;;;;;;5092741;28;20043;-61
2022/04/20 02:19:39;;;;;;;8.82;4.60;;;;;;;;;;5060062;28;20040;-61
2022/04/20 02:22:05;;;;;;;11.43;5.78;;;;;;;;;;5080953;28;20102;-61
2022/04/20 02:24:31;;;;;;;9.25;4.60;;;;;;;;;;5066655;28;20048;-62
2022/04/20 02:26:57;;;;;;;10.70;4.70;;;;;;;;;;5074780;28;20056;-61
2022/04/20 02:29:23;;;;;;;7.82;4.63;;;;;;;;;;5061277;28;20058;-62
2022/04/20 02:31:49;;;;;;;8.38;4.63;;;;;;;;;;5085724;28;20049;-61
2022/04/20 02:34:15;;;;;;;10.57;5.20;;;;;;;;;;5080874;28;20106;-61
2022/04/20 02:36:41;;;;;;;8.55;4.93;;;;;;;;;;5075524;28;20040;-61
2022/04/20 02:39:08;;;;;;;10.10;4.63;;;;;;;;;;5094691;28;20426;-61
2022/04/20 02:41:36;;;;;;;9.70;5.10;;;;;;;;;;5088979;28;20037;-62
2022/04/20 02:44:03;;;;;;;7.97;4.38;;;;;;;;;;5073480;28;20040;-61
2022/04/20 02:46:29;;;;;;;8.05;4.28;;;;;;;;;;5066243;28;20480;-61
2022/04/20 02:48:55;;;;;;;9.15;4.80;;;;;;;;;;5092362;28;20036;-61
2022/04/20 02:51:21;;;;;;;13.02;4.80;;;;;;;;;;5073986;28;20059;-61
2022/04/20 02:53:47;;;;;;;9.93;5.15;;;;;;;;;;5076667;28;20123;-62
2022/04/20 02:56:13;;;;;;;7.85;4.85;;;;;;;;;;5092828;28;20043;-62
2022/04/20 02:58:39;;;;;;;7.82;4.47;;;;;;;;;;5066736;28;20040;-62
2022/04/20 03:01:06;;;;;;;9.40;5.13;;;;;;;;;;5059193;28;20044;-62
2022/04/20 03:03:32;;;;;;;9.48;5.15;;;;;;;;;;5074102;28;20527;-61
2022/04/20 03:05:58;;;;;;;10.95;4.63;;;;;;;;;;5057336;28;20044;-62
2022/04/20 03:08:24;;;;;;;6.97;4.75;;;;;;;;;;5092211;28;20151;-61
2022/04/20 03:10:51;;;;;;;9.60;4.88;;;;;;;;;;5093975;28;20090;-61
2022/04/20 03:13:17;;;;;;;9.73;5.30;;;;;;;;;;5092063;28;20044;-61
2022/04/20 03:15:44;;;;;;;9.50;5.05;;;;;;;;;;5093887;28;20530;-62
2022/04/20 03:18:10;;;;;;;9.13;5.15;;;;;;;;;;5076867;28;20119;-61
2022/04/20 03:20:36;;;;;;;8.25;4.75;;;;;;;;;;5079747;28;20127;-61
2022/04/20 03:23:01;;;;;;;11.48;5.50;;;;;;;;;;5073871;28;20044;-61
2022/04/20 03:25:27;;;;;;;10.88;5.15;;;;;;;;;;5088988;28;20048;-61
2022/04/20 03:27:53;;;;;;;9.60;5.00;;;;;;;;;;5050860;28;20041;-62
2022/04/20 03:30:20;;;;;;;10.20;5.25;;;;;;;;;;5087543;28;20036;-62
2022/04/20 03:32:46;;;;;;;6.03;4.05;;;;;;;;;;5091565;28;20040;-61
2022/04/20 03:35:12;;;;;;;9.80;5.32;;;;;;;;;;5084811;28;20044;-62
2022/04/20 03:37:38;;;;;;;8.73;5.50;;;;;;;;;;5066065;28;20051;-62
2022/04/20 03:40:05;;;;;;;8.95;4.78;;;;;;;;;;5082280;28;20113;-61
2022/04/20 03:42:31;;;;;;;7.75;5.32;;;;;;;;;;5084103;28;20090;-62
2022/04/20 03:44:57;;;;;;;11.32;5.10;;;;;;;;;;5083957;28;20439;-61
2022/04/20 03:47:23;;;;;;;11.68;4.82;;;;;;;;;;5083653;28;20044;-62
2022/04/20 03:49:49;;;;;;;13.93;5.72;;;;;;;;;;5065223;28;20456;-62
2022/04/20 03:52:15;;;;;;;12.07;5.80;;;;;;;;;;5082661;28;20048;-62
2022/04/20 03:54:41;;;;;;;10.40;5.70;;;;;;;;;;5046664;28;20149;-62
2022/04/20 03:57:07;;;;;;;9.40;4.85;;;;;;;;;;5065784;28;20052;-62
2022/04/20 03:59:34;;;;;;;10.43;6.00;;;;;;;;;;5050111;28;20559;-62
2022/04/20 04:02:00;;;;;;;8.85;5.15;;;;;;;;;;5065950;28;20036;-62
2022/04/20 04:04:26;;;;;;;9.60;5.32;;;;;;;;;;5085190;28;20126;-61
2022/04/20 04:06:52;;;;;;;10.80;5.97;;;;;;;;;;5083246;28;20123;-65
2022/04/20 04:09:18;;;;;;;9.23;5.18;;;;;;;;;;5086551;28;20480;-61
2022/04/20 04:11:44;;;;;;;10.35;5.93;;;;;;;;;;5073469;28;20122;-61
2022/04/20 04:14:10;;;;;;;11.30;5.55;;;;;;;;;;5090706;28;20066;-62
2022/04/20 04:16:36;;;;;;;13.10;6.10;;;;;;;;;;5074915;28;20472;-61
2022/04/20 04:19:04;;;;;;;13.98;6.13;;;;;;;;;;5065937;28;20035;-61
2022/04/20 04:21:31;;;;;;;10.20;5.78;;;;;;;;;;5075498;28;20135;-62
2022/04/20 04:23:57;;;;;;;13.80;5.47;;;;;;;;;;5067963;28;20495;-61
2022/04/20 04:26:23;;;;;;;18.88;6.13;;;;;;;;;;5092747;28;20407;-62
2022/04/20 04:28:49;;;;;;;10.40;5.72;;;;;;;;;;5079416;28;20047;-61
2022/04/20 04:31:15;;;;;;;13.70;5.28;;;;;;;;;;5069342;28;20157;-61
2022/04/20 04:33:41;;;;;;;9.95;5.28;;;;;;;;;;5090159;28;20475;-62
2022/04/20 04:36:07;;;;;;;17.70;6.00;;;;;;;;;;5092530;28;20054;-61
2022/04/20 04:38:33;;;;;;;12.65;5.95;;;;;;;;;;5071113;28;20067;-63
2022/04/20 04:40:59;;;;;;;9.57;5.13;;;;;;;;;;5081239;28;20055;-61
2022/04/20 04:43:26;;;;;;;12.68;6.53;;;;;;;;;;5083610;28;20032;-61
2022/04/20 04:48:36;;;;;;;10.27;5.57;;;;;;;;;;5089011;28;20055;-62
2022/04/20 04:51:06;;;;;;;11.98;5.38;;;;;;;;;;5056404;28;20089;-61
2022/04/20 04:53:32;;;;;;;11.37;5.77;;;;;;;;;;5056598;28;20047;-61
2022/04/20 04:55:58;;;;;;;11.70;5.22;;;;;;;;;;5074577;28;20131;-61
2022/04/20 04:58:24;;;;;;;9.73;4.90;;;;;;;;;;5090868;28;20131;-61
2022/04/20 05:00:50;;;;;;;10.75;5.30;;;;;;;;;;5047964;28;20436;-61
2022/04/20 05:03:17;;;;;;;10.40;5.38;;;;;;;;;;5084146;28;20542;-62
2022/04/20 05:05:49;;;;;;;8.45;5.35;;;;;;;;;;5060363;28;20075;-61
2022/04/20 05:08:15;;;;;;;9.07;4.88;;;;;;;;;;5091023;28;20040;-61
2022/04/20 05:10:41;;;;;;;15.18;5.22;;;;;;;;;;5073568;28;20044;-62
2022/04/20 05:13:08;;;;;;;13.80;4.93;;;;;;;;;;5090249;28;20053;-61
2022/04/20 05:15:34;;;;;;;10.55;5.43;;;;;;;;;;5056580;28;20048;-63
2022/04/20 05:18:00;;;;;;;10.73;5.35;;;;;;;;;;5073448;28;20048;-59
2022/04/20 05:20:27;;;;;;;9.52;4.50;;;;;;;;;;5074282;28;20048;-61
2022/04/20 05:22:53;;;;;;;9.38;4.70;;;;;;;;;;5090107;28;20051;-61
2022/04/20 05:25:19;;;;;;;9.57;4.80;;;;;;;;;;5073647;28;20043;-62
2022/04/20 05:27:45;;;;;;;10.10;5.20;;;;;;;;;;5072554;28;20052;-61
2022/04/20 05:30:14;;;;;;;6.95;4.63;;;;;;;;;;5090698;28;20036;-61
2022/04/20 05:32:40;;;;;;;8.25;5.03;;;;;;;;;;5090538;28;20052;-62
2022/04/20 05:35:07;;;;;;;10.07;4.57;;;;;;;;;;5090357;28;20044;-62
2022/04/20 05:43:03;;;;;;;7.20;4.68;;;;;;;;;;5092106;28;20476;-62
2022/04/20 05:45:29;;;;;;;12.43;5.10;;;;;;;;;;5077262;28;20047;-64
2022/04/20 05:47:55;;;;;;;9.45;4.88;;;;;;;;;;5095492;28;20059;-61
2022/04/20 05:50:22;;;;;;;10.57;4.78;;;;;;;;;;5096001;28;20047;-61
2022/04/20 05:52:48;;;;;;;8.27;4.63;;;;;;;;;;5077242;28;20067;-62
2022/04/20 05:55:14;;;;;;;7.47;4.57;;;;;;;;;;5077625;28;20044;-61
2022/04/20 05:57:40;;;;;;;8.85;4.20;;;;;;;;;;5094783;28;20094;-61
2022/04/20 06:00:07;;;;;;;6.90;4.00;;;;;;;;;;5077807;28;20108;-64
2022/04/20 06:02:33;;;;;;;9.38;4.60;;;;;;;;;;5082184;28;20047;-61
2022/04/20 06:05:00;;;;;;;8.75;4.28;;;;;;;;;;5077577;28;20107;-62
2022/04/20 06:07:26;;;;;;;8.48;5.53;;;;;;;;;;5059508;28;20052;-62
2022/04/20 06:09:52;;;;;;;7.03;4.30;;;;;;;;;;5077614;28;20051;-61
2022/04/20 06:12:20;;;;;;;8.07;4.30;;;;;;;;;;5077850;28;20044;-61
2022/04/20 06:14:46;;;;;;;9.52;3.97;;;;;;;;;;5076752;28;20056;-61
2022/04/20 06:17:12;;;;;;;7.80;4.45;;;;;;;;;;5093977;28;20048;-61
2022/04/20 06:19:39;;;;;;;8.07;4.18;;;;;;;;;;5077182;28;20050;-61
2022/04/20 06:22:05;;;;;;;6.70;4.00;;;;;;;;;;5094836;28;20056;-61
2022/04/20 06:24:31;;;;;;;9.30;4.70;;;;;;;;;;5078605;28;20047;-61
2022/04/20 06:26:57;;;;;;;14.43;5.78;;;;;;;;;;5092087;28;20051;-61
2022/04/20 06:29:23;;;;;;;7.35;4.38;;;;;;;;;;5076527;28;20047;-61
2022/04/20 06:31:51;;;;;;;10.98;4.88;;;;;;;;;;5080119;28;20044;-61
2022/04/20 06:34:17;;;;;;;8.23;4.45;;;;;;;;;;5094825;28;20048;-61
2022/04/20 06:36:43;;;;;;;8.73;4.07;;;;;;;;;;5093468;28;20128;-61
2022/04/20 06:39:09;;;;;;;7.47;4.13;;;;;;;;;;5076880;28;20044;-61
2022/04/20 06:41:35;;;;;;;6.20;3.58;;;;;;;;;;5077154;28;20393;-61
2022/04/20 06:44:01;;;;;;;6.60;3.97;;;;;;;;;;5094542;28;20044;-61
2022/04/20 06:46:28;;;;;;;7.40;4.30;;;;;;;;;;5080076;28;20440;-61
2022/04/20 06:48:53;;;;;;;10.70;3.80;;;;;;;;;;5093026;28;20036;-61
2022/04/20 06:51:19;;;;;;;7.50;3.70;;;;;;;;;;5093208;28;20044;-61
2022/04/20 06:59:15;;;;;;;6.85;3.85;;;;;;;;;;5066666;28;20088;-61
2022/04/20 07:01:41;;;;;;;8.57;4.40;;;;;;;;;;5093617;28;20269;-61
2022/04/20 07:04:07;;;;;;;10.50;4.95;;;;;;;;;;5076541;28;20127;-61
2022/04/20 07:06:33;;;;;;;5.32;3.67;;;;;;;;;;5094300;28;21760;-61
2022/04/20 07:08:59;;;;;;;6.80;3.80;;;;;;;;;;5075724;28;20109;-61
2022/04/20 07:11:28;;;;;;;8.38;3.63;;;;;;;;;;5074542;28;20054;-61
2022/04/20 07:13:54;;;;;;;6.40;3.83;;;;;;;;;;5094181;28;20547;-61
2022/04/20 07:16:20;;;;;;;7.57;3.33;;;;;;;;;;5076431;28;20054;-61
2022/04/20 07:18:46;;;;;;;5.50;3.35;;;;;;;;;;5092596;28;20045;-63
2022/04/20 07:21:12;;;;;;;8.50;3.58;;;;;;;;;;5092559;28;20047;-61
2022/04/20 07:23:38;;;;;;;7.22;3.60;;;;;;;;;;5076118;28;20051;-60
2022/04/20 07:26:04;;;;;;;9.63;3.67;;;;;;;;;;5092978;28;20130;-64
2022/04/20 07:28:31;;;;;;;7.15;3.80;;;;;;;;;;5074793;28;20044;-62
2022/04/20 07:30:57;;;;;;;7.70;3.58;;;;;;;;;;5092243;28;20055;-57
2022/04/20 07:33:24;;;;;;;6.93;3.50;;;;;;;;;;5091272;28;20036;-57
2022/04/20 07:35:50;;;;;;;6.93;2.72;;;;;;;;;;5092404;28;20051;-57
2022/04/20 07:38:16;;;;;;;5.53;3.13;;;;;;;;;;5092070;28;20079;-58
2022/04/20 07:40:42;;;;;;;8.82;3.83;;;;;;;;;;5091873;28;20136;-59
2022/04/20 07:43:08;;;;;;;7.65;3.20;;;;;;;;;;5088335;28;20044;-59
2022/04/20 07:45:34;;;;;;;6.05;3.03;;;;;;;;;;5074167;28;20059;-59
2022/04/20 07:48:00;;;;;;;4.55;2.90;;;;;;;;;;5074413;28;20050;-58
2022/04/20 07:50:27;;;;;;;7.95;2.85;;;;;;;;;;5073830;28;20078;-58
2022/04/20 07:52:53;;;;;;;6.25;2.70;;;;;;;;;;5091864;28;20047;-57
2022/04/20 07:55:21;;;;;;;5.57;2.67;;;;;;;;;;5092036;28;20032;-58
2022/04/20 07:57:47;;;;;;;5.80;2.65;;;;;;;;;;5057732;28;20054;-58
2022/04/20 08:00:14;;;;;;;4.35;2.50;;;;;;;;;;5088395;28;20046;-57
2022/04/20 08:02:41;;;;;;;6.22;2.70;;;;;;;;;;5089924;28;20138;-58
2022/04/20 08:05:08;;;;;;;4.13;2.90;;;;;;;;;;5092548;28;20039;-58
2022/04/20 08:07:34;;;;;;;5.60;2.25;;;;;;;;;;5093103;28;20056;-57
2022/04/20 08:10:01;;;;;;;5.88;2.22;;;;;;;;;;5075097;28;20527;-58
2022/04/20 08:12:29;;;;;;;7.80;2.20;;;;;;;;;;5091487;28;20044;-58
2022/04/20 08:14:55;;;;;;;3.95;2.00;;;;;;;;;;5092347;28;20492;-58
2022/04/20 08:17:21;;;;;;;4.75;2.08;;;;;;;;;;5092692;28;20036;-58
2022/04/20 08:19:47;;;;;;;4.03;1.92;;;;;;;;;;5093126;28;20502;-57
2022/04/20 08:22:14;;;;;;;4.03;2.05;;;;;;;;;;5091372;28;20072;-57
2022/04/20 08:24:43;;;;;;;5.53;2.25;;;;;;;;;;5091802;28;20059;-57
2022/04/20 08:27:09;;;;;;;6.68;2.15;;;;;;;;;;5074452;28;20048;-58
2022/04/20 08:29:35;;;;;;;5.43;1.98;;;;;;;;;;5072730;28;20052;-58
2022/04/20 08:32:01;;;;;;;5.35;2.35;;;;;;;;;;5076646;28;21548;-57
2022/04/20 08:34:27;;;;;;;5.10;2.53;;;;;;;;;;5091119;28;20044;-58
2022/04/20 08:36:53;;;;;;;3.78;1.75;;;;;;;;;;5092790;28;20051;-58
2022/04/20 08:39:19;;;;;;;4.50;2.17;;;;;;;;;;5092675;28;20059;-58
2022/04/20 08:41:48;;;;;;;7.80;1.90;;;;;;;;;;5091935;28;20052;-57
2022/04/20 08:44:15;;;;;;;4.63;1.92;;;;;;;;;;5091850;28;20125;-57
2022/04/20 08:46:42;;;;;;;7.82;3.13;;;;;;;;;;5074869;28;20058;-58
2022/04/20 08:49:08;;;;;;;5.15;2.58;;;;;;;;;;5092688;28;20450;-57
2022/04/20 08:54:19;;;;;;;3.60;1.92;;;;;;;;;;5087576;28;20051;-56
2022/04/20 08:59:32;;;;;;;3.08;1.85;;;;;;;;;;5088229;28;20048;-57
2022/04/20 09:02:00;;;;;;;3.28;1.77;;;;;;;;;;5090125;28;20161;-56
2022/04/20 09:04:26;;;;;;;5.80;1.80;;;;;;;;;;5079856;28;20089;-57
2022/04/20 09:06:52;;;;;;;3.47;1.73;;;;;;;;;;5092069;28;20119;-57
2022/04/20 09:09:18;;;;;;;3.28;1.70;;;;;;;;;;5074368;28;20051;-57
2022/04/20 09:11:45;;;;;;;3.40;1.42;;;;;;;;;;5086792;28;20048;-57
2022/04/20 09:14:16;;;;;;;4.60;1.95;;;;;;;;;;5090268;28;20044;-57
2022/04/20 09:16:43;;;;;;;2.80;1.38;;;;;;;;;;5091760;28;20047;-57
2022/04/20 09:19:10;;;;;;;4.03;1.52;;;;;;;;;;5078548;28;20113;-56
2022/04/20 09:21:36;;;;;;;4.68;1.67;;;;;;;;;;5085489;28;20048;-57
2022/04/20 09:24:06;;;;;;;2.45;1.30;;;;;;;;;;5095669;28;20043;-57
2022/04/20 09:26:32;;;;;;;6.75;1.65;;;;;;;;;;5096229;28;20135;-57
2022/04/20 09:29:05;;;;;;;3.63;1.73;;;;;;;;;;5096364;28;20036;-57
2022/04/20 09:31:47;;;;;;;5.43;1.80;;;;;;;;;;5095219;28;20044;-56
2022/04/20 09:34:25;;;;;;;3.38;1.30;;;;;;;;;;5095448;28;20403;-57
2022/04/20 09:36:54;;;;;;;4.53;1.60;;;;;;;;;;5096116;28;20122;-57
2022/04/20 09:39:21;;;;;;;4.63;1.50;;;;;;;;;;5078098;28;20048;-57
2022/04/20 09:41:59;;;;;;;4.30;1.60;;;;;;;;;;5094930;28;20188;-57
2022/04/20 09:44:29;;;;;;;4.35;1.55;;;;;;;;;;5095935;28;20055;-57
2022/04/20 09:49:57;;;;;;;10.65;2.22;;;;;;;;;;5078017;28;20044;-57
2022/04/20 09:52:35;;;;;;;2.60;1.35;;;;;;;;;;5093925;28;20048;-57
2022/04/20 09:55:01;;;;;;;2.88;1.48;;;;;;;;;;5078761;28;20071;-57
2022/04/20 09:57:28;;;;;;;3.15;1.40;;;;;;;;;;5095830;28;20501;-57
2022/04/20 09:59:57;;;;;;;4.25;1.42;;;;;;;;;;5095405;28;20071;-57
2022/04/20 10:02:23;;;;;;;3.08;1.30;;;;;;;;;;5078483;28;20488;-57
2022/04/20 10:04:51;;;;;;;3.97;1.30;;;;;;;;;;5095300;28;20059;-57
2022/04/20 10:07:18;;;;;;;3.00;1.30;;;;;;;;;;5095329;28;20058;-57
2022/04/20 10:09:44;;;;;;;7.35;1.88;;;;;;;;;;5095320;28;20594;-56
2022/04/20 10:12:15;;;;;;;3.28;1.40;;;;;;;;;;5093772;28;20044;-56
2022/04/20 10:17:28;;;;;;;2.67;1.42;;;;;;;;;;5088951;28;20058;-57
2022/04/20 10:19:55;;;;;;;2.00;1.10;;;;;;;;;;5095673;28;20044;-56
2022/04/20 10:22:21;;;;;;;3.83;1.23;;;;;;;;;;5092730;28;20048;-56
2022/04/20 10:24:53;;;;;;;2.38;1.00;;;;;;;;;;5075829;28;20151;-56
2022/04/20 10:27:23;;;;;;;2.63;1.30;;;;;;;;;;5094382;28;20044;-56
2022/04/20 10:29:56;;;;;;;2.75;1.23;;;;;;;;;;5094514;28;20048;-56
2022/04/20 10:32:24;;;;;;;2.78;1.27;;;17.00;91.90;;;;;;5093958;28;20036;-56
2022/04/20 10:34:51;;;;;;;2.78;1.10;;;;;;;;;;5095206;28;20040;-56
2022/04/20 10:37:25;;;;;;;5.00;1.42;;;;;;;;;;5077170;28;20051;-57
2022/04/20 10:39:53;;;;;;;2.78;1.00;;;;;;;;;;5110992;28;20515;-56
2022/04/20 10:42:20;;;;;;;2.38;1.20;;;;;;;;;;5075269;28;20841;-55
2022/04/20 10:44:56;;;;;;;4.07;1.27;;;;;;;;;;5076552;28;20075;-55
2022/04/20 10:47:26;;;;;;;5.60;1.10;;;;;;;;;;5094980;28;20402;-55
2022/04/20 10:49:52;;;;;;;3.75;1.20;;;;;;;;;;5094425;28;20048;-56
2022/04/20 10:52:25;;;;;;;3.13;1.25;;;;;;;;;;5081145;28;20045;-56
2022/04/20 10:54:51;;;;;;;1.90;1.00;;;;;;;;;;5074634;28;20052;-56
2022/04/20 10:57:33;;;;;;;8.43;1.20;;;;;;;;;;5107147;28;20047;-56
2022/04/20 11:00:18;;;;;;;2.05;1.05;;;;;;;;;;5090856;28;20044;-56
2022/04/20 11:02:54;;;;;;;3.25;1.02;;;;;;;;;;5096503;28;20123;-56
2022/04/20 11:05:24;;;;;;;1.70;0.73;;;;;;;;;;5086245;28;20057;-56
2022/04/20 11:08:06;;;;;;;3.38;0.90;;;;;;;;;;5075338;28;20044;-56
2022/04/20 11:10:33;;;;;;;1.98;1.00;;;;;;;;;;5087602;28;20050;-56
2022/04/20 11:19:05;;;;;;;2.50;1.25;;;;;;;;;;5080911;28;20050;-56
2022/04/20 11:21:31;;;;;;;2.97;0.98;;;;;;;;;;5101255;28;20096;-56
2022/04/20 11:23:59;;;;;;;5.05;1.30;;;;;;;;;;5090990;28;20044;-56
2022/04/20 11:26:49;;;;;;;3.80;1.20;;;;;;;;;;5077103;28;20052;-56
2022/04/20 11:29:15;;;;;;;1.77;1.05;;;;;;;;;;5084304;28;20146;-56
2022/04/20 11:31:42;;;;;;;3.70;1.33;;;;;;;;;;5084983;28;20045;-56
2022/04/20 11:34:09;;;;;;;2.80;1.30;;;;;;;;;;5087308;28;20044;-57
2022/04/20 11:36:40;;;;;;;3.72;1.30;;;;;;;;;;5091528;28;20130;-55
2022/04/20 11:39:07;;;;;;;3.80;1.13;;;;;;;;;;5090763;28;20052;-55
2022/04/20 11:41:35;;;;;;;2.53;1.10;;;;;;;;;;5091586;28;20097;-56
2022/04/20 11:44:02;;;;;;;4.15;1.02;;;;;;;;;;5092010;28;20496;-56
2022/04/20 11:46:28;;;;;;;2.28;1.50;;;;;;;;;;5092131;28;20052;-56
2022/04/20 11:48:55;;;;;;;5.15;1.27;;;;;;;;;;5090903;28;20040;-56
2022/04/20 11:51:31;;;;;;;2.25;1.10;;;;;;;;;;5092952;28;20040;-56
2022/04/20 11:53:57;;;;;;;12.02;1.90;;;;;;;;;;5089927;28;20036;-55
2022/04/20 11:56:36;;;;;;;2.53;1.10;;;;;;;;;;5092041;28;20083;-56
2022/04/20 11:59:03;;;;;;;2.83;1.50;;;;;;;;;;5091920;28;20047;-56
2022/04/20 12:01:30;;;;;;;3.10;1.23;;;;;;;;;;5073111;28;20931;-56
2022/04/20 12:03:57;;;;;;;4.90;1.30;;;;;;;;;;5072344;28;20499;-56
2022/04/20 12:06:24;;;;;;;4.57;1.35;;;;;;;;;;5091475;28;20059;-56
2022/04/20 12:08:53;;;;;;;3.70;1.55;;;;;;;;;;5091973;28;20044;-56
2022/04/20 12:11:19;;;;;;;3.13;1.40;;;;;;;;;;5073512;28;20052;-56
2022/04/20 12:13:46;;;;;;;3.05;1.80;;;;;;;;;;5091886;28;20075;-56
2022/04/20 12:16:13;;;;;;;4.32;1.30;;;;;;;;;;5092213;28;20048;-56
2022/04/20 12:18:43;;;;;;;4.78;1.50;;;;;;;;;;5090856;28;20048;-57
2022/04/20 12:21:29;;;;;;;4.18;1.52;;;;;;;;;;5066754;28;20526;-56
2022/04/20 12:23:55;;;;;;;2.75;1.42;;;;;;;;;;5093045;28;20052;-56
2022/04/20 12:26:28;;;;;;;4.15;1.45;;;;;;;;;;5092625;28;20048;-56
2022/04/20 12:28:58;;;;;;;4.50;1.88;;;;;;;;;;5092115;28;20052;-56
2022/04/20 12:31:25;;;;;;;6.88;1.80;;;;;;;;;;5090777;28;20048;-56
2022/04/20 12:34:04;;;;;;;2.55;1.30;;;;;;;;;;5092073;28;20482;-56
2022/04/20 12:36:34;;;;;;;4.55;1.38;;;;;;;;;;5090709;28;20044;-56
2022/04/20 12:39:00;;;;;;;3.17;1.23;;;;;;;;;;5092352;28;20097;-56
2022/04/20 12:41:43;;;;;;;5.13;1.40;;;;;;;;;;5092817;28;20055;-56
2022/04/20 12:44:46;;;;;;;2.03;1.08;;;18.10;91.60;;;;;;5092339;28;20097;-56
2022/04/20 12:47:15;;;;;;;2.72;1.55;;;;;;;;;;5089658;28;20040;-57
2022/04/20 12:49:52;;;;;;;3.50;1.35;;;;;;;;;;5092682;28;20036;-57
2022/04/20 12:52:18;;;;;;;4.70;1.27;;;;;;;;;;5090205;28;20526;-57
2022/04/20 12:55:02;;;;;;;4.18;1.20;;;;;;;;;;5089850;28;20040;-59
2022/04/20 13:03:01;;;;;;;3.72;1.10;;;;;;;;;;5091041;28;20563;-58
2022/04/20 13:05:30;;;;;;;3.08;1.48;;;;;;;;;;5086259;28;20048;-56
2022/04/20 13:07:56;;;;;;;3.17;1.30;;;;;;;;;;5091399;28;20048;-57
2022/04/20 13:10:25;;;;;;;1.50;0.90;;;;;;;;;;5092070;28;20067;-56
2022/04/20 13:12:51;;;;;;;2.08;1.00;;;;;;;;;;5091284;28;20149;-56
2022/04/20 13:15:18;;;;;;;2.47;1.10;;;;;;;;;;5091117;28;20411;-56
2022/04/20 13:17:47;;;;;;;2.22;0.90;;;;;;;;;;5091915;28;20059;-56
2022/04/20 13:20:13;;;;;;;2.78;1.00;;;;;;;;;;5091868;28;20127;-56
2022/04/20 13:22:45;;;;;;;2.47;1.20;;;;;;;;;;5092038;28;20052;-56
2022/04/20 13:27:56;;;;;;;2.45;1.15;;;;;;;;;;5089549;28;20467;-56
2022/04/20 13:33:06;;;;;;;3.30;0.95;;;;;;;;;;5161184;22;20484;-71
2022/04/20 13:35:32;;;;;;;1.75;1.00;;;;;;;;;;5090943;28;20479;-68
2022/04/20 13:37:58;;;;;;;2.60;0.90;;;;;;;;;;5083404;28;20051;-69
2022/04/20 13:40:24;;;;;;;5.03;1.45;;;;;;;;;;5074565;28;20432;-67
2022/04/20 13:42:50;;;;;;;1.70;0.93;;;;;;;;;;5100665;28;20096;-69
2022/04/20 13:45:16;;;;;;;3.08;1.48;;;;;;;;;;5097317;28;20027;-69
2022/04/20 13:47:42;;;;;;;1.98;0.90;;;;;;;;;;5073692;28;20127;-69
2022/04/20 13:50:09;;;;;;;1.80;0.90;;;;;;;;;;5091688;28;20090;-69
2022/04/20 13:52:36;;;;;;;3.05;0.88;;;;;;;;;;5086053;28;20391;-67
2022/04/20 13:55:03;;;;;;;1.73;1.00;;;;;;;;;;5091241;28;20036;-66
2022/04/20 13:57:29;;;;;;;2.88;1.20;;;;;;;;;;5079039;28;20125;-68
2022/04/20 13:59:55;;;;;;;3.20;0.93;;;;;;;;;;5082975;28;20044;-68
2022/04/20 14:02:22;;;;;;;1.35;0.90;;;;;;;;;;5071875;28;20465;-67
2022/04/20 14:04:50;;;;;;;3.20;0.98;;;;;;;;;;5085444;28;20476;-67
2022/04/20 14:07:18;;;;;;;3.10;0.98;;;;;;;;;;5079682;28;20047;-67
2022/04/20 14:09:44;;;;;;;3.03;0.88;;;;;;;;;;5081153;28;20043;-67
2022/04/20 14:12:10;;;;;;;1.70;1.00;;;;;;;;;;5043759;28;20469;-67
2022/04/20 14:14:36;;;;;;;10.32;1.40;;;;;;;;;;5075660;28;20075;-67
2022/04/20 14:17:02;;;;;;;3.38;0.90;;;;;;;;;;5075491;28;20086;-66
2022/04/20 14:19:28;;;;;;;1.80;0.90;;;;;;;;;;5040171;28;20056;-66
2022/04/20 14:21:54;;;;;;;5.20;1.20;;;;;;;;;;5080309;28;20123;-67
2022/04/20 14:24:20;;;;;;;2.45;0.95;;;;;;;;;;5095731;28;20119;-67
2022/04/20 14:32:17;;;;;;;3.00;1.05;;;;;;;;;;5076519;28;20046;-68
2022/04/20 14:34:44;;;;;;;2.33;1.20;;;;;;;;;;5095582;28;20087;-68
2022/04/20 14:37:10;;;;;;;3.42;0.90;;;;;;;;;;5095658;28;20043;-65
2022/04/20 14:39:38;;;;;;;3.13;1.15;;;;;;;;;;5096491;28;20031;-70
2022/04/20 14:42:04;;;;;;;3.53;0.85;;;;;;;;;;5080685;28;20093;-59
2022/04/20 14:44:39;;;;;;;3.08;1.13;;;;;;;;;;5087286;28;20063;-62
2022/04/20 14:47:07;;;;;;;5.65;1.10;;;;;;;;;;5070851;28;20426;-60
2022/04/20 14:49:36;;;;;;;3.78;1.17;;;;;;;;;;5054717;28;20055;-70
2022/04/20 14:52:03;;;;;;;6.20;1.23;;;;;;;;;;5084387;28;20055;-66
2022/04/20 14:54:30;;;;;;;3.30;1.10;;;;;;;;;;5091881;28;20320;-68
2022/04/20 14:56:56;;;;;;;2.72;1.58;;;;;;;;;;5054167;28;20143;-66
2022/04/20 14:59:22;;;;;;;3.17;1.33;;;;;;;;;;5077278;28;20115;-66
2022/04/20 15:01:48;;;;;;;3.10;1.27;;;;;;;;;;5075764;28;20040;-66
2022/04/20 15:04:14;;;;;;;2.38;1.17;;;;;;;;;;5074436;28;20044;-66
2022/04/20 15:06:40;;;;;;;3.42;1.50;;;;;;;;;;5074627;28;20523;-65
2022/04/20 15:09:08;;;;;;;3.60;1.80;;;20.00;89.70;;;;;;5076912;28;20044;-66
2022/04/20 15:11:38;;;;;;;3.75;1.50;;;;;;;;;;5093561;28;20080;-68
2022/04/20 15:14:04;;;;;;;8.10;1.73;;;;;;;;;;5063325;28;20044;-68
2022/04/20 15:16:31;;;;;;;2.58;1.42;;;20.40;89.10;;;;;;5056227;28;20148;-65
2022/04/20 15:18:57;;;;;;;4.80;2.50;;;20.70;83.70;;;;;;5058649;28;20115;-67
2022/04/20 15:21:23;;;;;;;4.18;2.60;;;;;;;;;;5078565;28;20097;-65
2022/04/20 15:23:49;;;;;;;4.32;2.20;;;;;;;;;;5092894;28;20044;-66
2022/04/20 15:26:16;;;;;;;4.38;1.92;;;;;;;;;;5090336;28;20043;-65